createdAt,value
2018-02-11T00:00:52.310Z,78
2018-02-11T00:01:55.016Z,78
2018-02-11T00:02:57.439Z,77.9
2018-02-11T00:04:00.150Z,77.8
2018-02-11T00:05:02.579Z,77.7
2018-02-11T00:06:04.993Z,77.7
2018-02-11T00:07:07.410Z,77.6
2018-02-11T00:08:10.132Z,77.6
2018-02-11T00:09:12.544Z,77.7
2018-02-11T00:10:14.971Z,77.8
2018-02-11T00:11:17.672Z,77.9
2018-02-11T00:12:20.094Z,77.7
2018-02-11T00:13:22.520Z,77.7
2018-02-11T00:14:24.948Z,77.8
2018-02-11T00:15:27.365Z,77.8
2018-02-11T00:16:29.790Z,78
2018-02-11T00:17:32.792Z,78
2018-02-11T00:18:35.210Z,78
2018-02-11T00:19:37.640Z,78
2018-02-11T00:20:40.068Z,78.1
2018-02-11T00:21:42.484Z,78.2
2018-02-11T00:22:44.897Z,78.2
2018-02-11T00:23:47.328Z,77.9
2018-02-11T00:24:49.745Z,77.9
2018-02-11T00:25:52.174Z,78.2
2018-02-11T00:26:54.586Z,78.3
2018-02-11T00:27:57.002Z,78.6
2018-02-11T00:28:59.425Z,78.7
2018-02-11T00:30:02.723Z,78.4
2018-02-11T00:31:05.140Z,78.3
2018-02-11T00:32:07.871Z,78.3
2018-02-11T00:33:10.301Z,78.4
2018-02-11T00:34:12.714Z,78.4
2018-02-11T00:35:15.132Z,78.2
2018-02-11T00:36:17.547Z,78.2
2018-02-11T00:37:19.972Z,78.3
2018-02-11T00:38:22.396Z,78.1
2018-02-11T00:39:24.815Z,78.1
2018-02-11T00:40:27.238Z,78.1
2018-02-11T00:41:29.667Z,78
2018-02-11T00:42:32.090Z,78.2
2018-02-11T00:43:34.803Z,78.2
2018-02-11T00:44:37.224Z,78.2
2018-02-11T00:45:39.648Z,78.3
2018-02-11T00:46:42.060Z,78.3
2018-02-11T00:47:44.476Z,78.3
2018-02-11T00:48:46.910Z,78.4
2018-02-11T00:49:49.617Z,78.3
2018-02-11T00:50:52.034Z,78.1
2018-02-11T00:51:54.462Z,78.2
2018-02-11T00:52:56.886Z,78.2
2018-02-11T00:53:59.320Z,78
2018-02-11T00:55:01.746Z,78.2
2018-02-11T00:56:04.154Z,78.3
2018-02-11T00:57:06.577Z,78.3
2018-02-11T00:58:09.005Z,78.3
2018-02-11T00:59:11.421Z,78.3
2018-02-11T01:00:13.845Z,78.4
2018-02-11T01:01:16.272Z,78.5
2018-02-11T01:02:18.690Z,78.4
2018-02-11T01:03:21.464Z,78.2
2018-02-11T01:04:23.883Z,78.3
2018-02-11T01:05:26.289Z,78.6
2018-02-11T01:06:28.716Z,78.7
2018-02-11T01:07:31.131Z,78.6
2018-02-11T01:08:33.560Z,78.6
2018-02-11T01:09:35.985Z,78.5
2018-02-11T01:10:38.403Z,78.2
2018-02-11T01:11:40.829Z,78.2
2018-02-11T01:12:43.264Z,78
2018-02-11T01:13:45.678Z,78.2
2018-02-11T01:14:48.104Z,78.1
2018-02-11T01:15:50.519Z,78.1
2018-02-11T01:16:52.944Z,78.2
2018-02-11T01:17:55.361Z,78.3
2018-02-11T01:18:57.781Z,78.7
2018-02-11T01:20:00.498Z,78.6
2018-02-11T01:21:03.217Z,78.5
2018-02-11T01:22:05.629Z,78.5
2018-02-11T01:23:08.058Z,78.4
2018-02-11T01:24:10.486Z,78.5
2018-02-11T01:25:12.906Z,78.5
2018-02-11T01:26:15.322Z,78.3
2018-02-11T01:27:17.743Z,78.4
2018-02-11T01:28:20.152Z,78.4
2018-02-11T01:29:22.587Z,78.5
2018-02-11T01:30:24.990Z,78.7
2018-02-11T01:31:27.424Z,78.8
2018-02-11T01:32:29.850Z,78.7
2018-02-11T01:33:32.264Z,78.6
2018-02-11T01:34:34.685Z,78.3
2018-02-11T01:35:37.106Z,78.2
2018-02-11T01:36:39.522Z,78.4
2018-02-11T01:37:41.957Z,78.6
2018-02-11T01:38:44.379Z,78.6
2018-02-11T01:39:46.792Z,78.7
2018-02-11T01:40:49.223Z,78.6
2018-02-11T01:41:51.637Z,78.7
2018-02-11T01:42:54.053Z,78.6
2018-02-11T01:43:56.481Z,78.6
2018-02-11T01:44:58.907Z,78.8
2018-02-11T01:46:01.321Z,78.8
2018-02-11T01:47:03.751Z,78.9
2018-02-11T01:48:06.182Z,78.8
2018-02-11T01:49:08.603Z,78.6
2018-02-11T01:50:11.022Z,78.7
2018-02-11T01:51:13.443Z,78.6
2018-02-11T01:52:16.145Z,78.5
2018-02-11T01:53:18.572Z,78.6
2018-02-11T01:54:20.992Z,78.7
2018-02-11T01:55:23.395Z,78.7
2018-02-11T01:56:25.824Z,78.6
2018-02-11T01:57:28.240Z,78.4
2018-02-11T01:58:30.672Z,78.2
2018-02-11T01:59:33.098Z,78.3
2018-02-11T02:00:35.788Z,78.2
2018-02-11T02:01:38.491Z,78.2
2018-02-11T02:02:40.929Z,78.4
2018-02-11T02:03:43.351Z,78.4
2018-02-11T02:04:45.768Z,78.3
2018-02-11T02:05:48.197Z,78.4
2018-02-11T02:06:50.894Z,78.4
2018-02-11T02:07:53.323Z,78.4
2018-02-11T02:08:55.757Z,78.6
2018-02-11T02:09:58.161Z,78.7
2018-02-11T02:11:00.585Z,78.7
2018-02-11T02:12:02.997Z,78.8
2018-02-11T02:13:05.416Z,78.8
2018-02-11T02:14:07.841Z,78.9
2018-02-11T02:15:10.552Z,78.8
2018-02-11T02:16:13.293Z,78.8
2018-02-11T02:17:15.994Z,78.8
2018-02-11T02:18:18.417Z,78.7
2018-02-11T02:19:20.850Z,78.7
2018-02-11T02:20:23.271Z,78.8
2018-02-11T02:21:25.700Z,78.9
2018-02-11T02:22:28.127Z,78.8
2018-02-11T02:23:30.545Z,78.8
2018-02-11T02:24:32.968Z,78.7
2018-02-11T02:25:35.395Z,78.7
2018-02-11T02:26:37.815Z,78.6
2018-02-11T02:27:40.235Z,78.5
2018-02-11T02:28:42.663Z,78.6
2018-02-11T02:29:45.359Z,78.7
2018-02-11T02:30:47.773Z,78.6
2018-02-11T02:31:50.196Z,78.6
2018-02-11T02:32:52.925Z,78.5
2018-02-11T02:33:55.364Z,78.7
2018-02-11T02:34:57.786Z,78.8
2018-02-11T02:36:00.211Z,78.5
2018-02-11T02:37:02.641Z,78.5
2018-02-11T02:38:05.056Z,78.5
2018-02-11T02:39:07.473Z,78.5
2018-02-11T02:40:09.902Z,78.4
2018-02-11T02:41:12.321Z,78.4
2018-02-11T02:42:14.736Z,78.3
2018-02-11T02:43:17.165Z,78.3
2018-02-11T02:44:19.585Z,78.2
2018-02-11T02:45:22.296Z,78.2
2018-02-11T02:46:24.703Z,78.2
2018-02-11T02:47:27.140Z,78.2
2018-02-11T02:48:29.858Z,78.2
2018-02-11T02:49:32.274Z,78.3
2018-02-11T02:50:34.703Z,78.5
2018-02-11T02:51:37.405Z,78.4
2018-02-11T02:52:39.827Z,78.5
2018-02-11T02:53:42.254Z,78.4
2018-02-11T02:54:44.941Z,78.6
2018-02-11T02:55:47.414Z,78.5
2018-02-11T02:56:49.793Z,78.5
2018-02-11T02:57:52.497Z,78.8
2018-02-11T02:58:55.231Z,78.9
2018-02-11T02:59:57.656Z,78.9
2018-02-11T03:01:00.656Z,78.9
2018-02-11T03:02:03.085Z,78.9
2018-02-11T03:03:05.498Z,79
2018-02-11T03:04:07.931Z,79
2018-02-11T03:05:10.349Z,78.9
2018-02-11T03:06:12.761Z,79
2018-02-11T03:07:15.185Z,79.1
2018-02-11T03:08:17.606Z,79.1
2018-02-11T03:09:20.019Z,79.1
2018-02-11T03:10:22.440Z,79.1
2018-02-11T03:11:25.146Z,79
2018-02-11T03:12:27.572Z,79.2
2018-02-11T03:13:29.997Z,79.1
2018-02-11T03:14:32.426Z,79.1
2018-02-11T03:15:34.846Z,79.2
2018-02-11T03:16:37.269Z,79.2
2018-02-11T03:17:39.680Z,79.3
2018-02-11T03:18:42.108Z,79.3
2018-02-11T03:19:44.820Z,79.4
2018-02-11T03:20:47.230Z,79.5
2018-02-11T03:21:49.654Z,79.5
2018-02-11T03:22:52.082Z,79.6
2018-02-11T03:23:54.498Z,79.6
2018-02-11T03:24:56.925Z,79.8
2018-02-11T03:25:59.338Z,79.8
2018-02-11T03:27:01.752Z,79.7
2018-02-11T03:28:04.193Z,79.6
2018-02-11T03:29:06.614Z,79.6
2018-02-11T03:30:09.033Z,79.5
2018-02-11T03:31:11.454Z,79.4
2018-02-11T03:32:13.912Z,79.2
2018-02-11T03:33:16.301Z,79.2
2018-02-11T03:34:18.723Z,79.4
2018-02-11T03:35:21.136Z,79.4
2018-02-11T03:36:23.560Z,79.3
2018-02-11T03:37:25.978Z,79.4
2018-02-11T03:38:28.417Z,79.4
2018-02-11T03:39:30.835Z,79.5
2018-02-11T03:40:33.248Z,79.6
2018-02-11T03:41:35.677Z,79.5
2018-02-11T03:42:38.108Z,79.4
2018-02-11T03:43:40.515Z,79.5
2018-02-11T03:44:42.949Z,79.4
2018-02-11T03:45:45.371Z,79.4
2018-02-11T03:46:47.784Z,79.6
2018-02-11T03:47:50.202Z,79.6
2018-02-11T03:48:52.626Z,79.5
2018-02-11T03:49:55.047Z,79.4
2018-02-11T03:50:57.478Z,79.3
2018-02-11T03:51:59.892Z,79.3
2018-02-11T03:53:02.305Z,79.4
2018-02-11T03:54:04.737Z,79.5
2018-02-11T03:55:07.151Z,79.4
2018-02-11T03:56:09.565Z,79.4
2018-02-11T03:57:12.284Z,79.5
2018-02-11T03:58:14.993Z,79.5
2018-02-11T03:59:17.429Z,79.4
2018-02-11T04:00:19.849Z,79.4
2018-02-11T04:01:22.271Z,79.3
2018-02-11T04:02:24.994Z,79.2
2018-02-11T04:03:27.416Z,79.2
2018-02-11T04:04:30.405Z,79.2
2018-02-11T04:05:32.833Z,79.3
2018-02-11T04:06:35.525Z,79.4
2018-02-11T04:07:37.945Z,79.2
2018-02-11T04:08:40.382Z,79.2
2018-02-11T04:09:42.796Z,79.3
2018-02-11T04:10:45.224Z,79.4
2018-02-11T04:11:47.639Z,79.5
2018-02-11T04:12:50.054Z,79.5
2018-02-11T04:13:52.473Z,79.5
2018-02-11T04:14:54.895Z,79.5
2018-02-11T04:15:57.323Z,79.5
2018-02-11T04:16:59.745Z,79.5
2018-02-11T04:18:02.162Z,79.6
2018-02-11T04:19:04.576Z,79.6
2018-02-11T04:20:06.995Z,79.5
2018-02-11T04:21:09.417Z,79.4
2018-02-11T04:22:12.122Z,79.3
2018-02-11T04:23:14.536Z,79.2
2018-02-11T04:24:16.957Z,79.2
2018-02-11T04:25:19.375Z,79.2
2018-02-11T04:26:21.805Z,79.2
2018-02-11T04:27:24.227Z,79
2018-02-11T04:28:26.649Z,78.9
2018-02-11T04:29:29.068Z,79.1
2018-02-11T04:30:31.495Z,79
2018-02-11T04:31:33.908Z,79
2018-02-11T04:32:36.325Z,79
2018-02-11T04:33:38.743Z,79
2018-02-11T04:34:41.163Z,79
2018-02-11T04:35:43.590Z,78.9
2018-02-11T04:36:46.008Z,79
2018-02-11T04:37:48.422Z,79.2
2018-02-11T04:38:50.853Z,79.1
2018-02-11T04:39:53.267Z,79.1
2018-02-11T04:40:55.696Z,79
2018-02-11T04:41:58.105Z,79.1
2018-02-11T04:43:00.516Z,79.2
2018-02-11T04:44:02.946Z,79.1
2018-02-11T04:45:05.363Z,79.1
2018-02-11T04:46:07.790Z,79.2
2018-02-11T04:47:10.494Z,79.4
2018-02-11T04:48:13.204Z,79.4
2018-02-11T04:49:15.615Z,79.4
2018-02-11T04:50:18.613Z,79.4
2018-02-11T04:51:21.028Z,79.5
2018-02-11T04:52:23.448Z,79.5
2018-02-11T04:53:25.867Z,79.5
2018-02-11T04:54:28.301Z,79.4
2018-02-11T04:55:30.763Z,79.4
2018-02-11T04:56:33.140Z,79.5
2018-02-11T04:57:35.548Z,79.4
2018-02-11T04:58:37.980Z,79.4
2018-02-11T04:59:40.401Z,79.4
2018-02-11T05:00:42.816Z,79.4
2018-02-11T05:01:45.244Z,79.3
2018-02-11T05:02:47.663Z,79.3
2018-02-11T05:03:50.080Z,79.1
2018-02-11T05:04:52.806Z,79.2
2018-02-11T05:05:55.209Z,79.3
2018-02-11T05:06:57.932Z,79.4
2018-02-11T05:08:00.354Z,79.4
2018-02-11T05:09:02.771Z,79.5
2018-02-11T05:10:05.196Z,79.3
2018-02-11T05:11:07.621Z,79.3
2018-02-11T05:12:10.032Z,79.5
2018-02-11T05:13:12.450Z,79.5
2018-02-11T05:14:14.866Z,79.6
2018-02-11T05:15:17.304Z,79.7
2018-02-11T05:16:19.716Z,79.7
2018-02-11T05:17:22.122Z,79.7
2018-02-11T05:18:24.544Z,79.6
2018-02-11T05:19:26.958Z,79.6
2018-02-11T05:20:29.379Z,79.7
2018-02-11T05:21:31.801Z,79.7
2018-02-11T05:22:34.214Z,79.6
2018-02-11T05:23:36.638Z,79.6
2018-02-11T05:24:39.065Z,79.5
2018-02-11T05:25:41.488Z,79.5
2018-02-11T05:26:43.907Z,79.8
2018-02-11T05:27:46.607Z,79.9
2018-02-11T05:28:49.301Z,79.9
2018-02-11T05:29:51.733Z,79.8
2018-02-11T05:30:54.160Z,79.7
2018-02-11T05:31:56.567Z,79.7
2018-02-11T05:32:58.995Z,79.7
2018-02-11T05:34:01.417Z,79.6
2018-02-11T05:35:03.832Z,79.7
2018-02-11T05:36:06.252Z,79.8
2018-02-11T05:37:08.659Z,79.6
2018-02-11T05:38:11.072Z,79.4
2018-02-11T05:39:13.509Z,79.5
2018-02-11T05:40:16.219Z,79.6
2018-02-11T05:41:18.630Z,79.7
2018-02-11T05:42:21.337Z,79.7
2018-02-11T05:43:23.751Z,79.8
2018-02-11T05:44:26.171Z,79.9
2018-02-11T05:45:28.587Z,79.9
2018-02-11T05:46:31.016Z,79.9
2018-02-11T05:47:33.438Z,79.9
2018-02-11T05:48:36.127Z,79.7
2018-02-11T05:49:38.832Z,79.9
2018-02-11T05:50:41.250Z,79.9
2018-02-11T05:51:43.961Z,80
2018-02-11T05:52:46.385Z,79.7
2018-02-11T05:53:48.800Z,79.7
2018-02-11T05:54:51.226Z,79.7
2018-02-11T05:55:53.944Z,79.8
2018-02-11T05:56:56.357Z,79.8
2018-02-11T05:57:59.076Z,79.8
2018-02-11T05:59:01.774Z,79.7
2018-02-11T06:00:04.197Z,79.7
2018-02-11T06:01:06.615Z,79.7
2018-02-11T06:02:09.027Z,79.7
2018-02-11T06:03:11.438Z,79.8
2018-02-11T06:04:13.864Z,79.8
2018-02-11T06:05:16.276Z,79.6
2018-02-11T06:06:18.982Z,79.7
2018-02-11T06:07:21.399Z,79.8
2018-02-11T06:08:23.826Z,79.8
2018-02-11T06:09:26.251Z,79.6
2018-02-11T06:10:28.668Z,79.8
2018-02-11T06:11:31.372Z,80
2018-02-11T06:12:33.787Z,80
2018-02-11T06:13:36.204Z,80
2018-02-11T06:14:38.924Z,80
2018-02-11T06:15:41.336Z,80.1
2018-02-11T06:16:44.052Z,80.1
2018-02-11T06:17:46.473Z,80
2018-02-11T06:18:48.887Z,80
2018-02-11T06:19:51.303Z,79.9
2018-02-11T06:20:53.733Z,79.9
2018-02-11T06:21:56.146Z,79.9
2018-02-11T06:22:58.563Z,79.9
2018-02-11T06:24:00.987Z,79.8
2018-02-11T06:25:03.687Z,79.7
2018-02-11T06:26:06.690Z,79.7
2018-02-11T06:27:09.392Z,79.7
2018-02-11T06:28:11.810Z,79.8
2018-02-11T06:29:14.240Z,79.6
2018-02-11T06:30:16.941Z,79.8
2018-02-11T06:31:19.347Z,79.8
2018-02-11T06:32:21.767Z,79.9
2018-02-11T06:33:24.187Z,79.9
2018-02-11T06:34:26.611Z,79.9
2018-02-11T06:35:29.035Z,80
2018-02-11T06:36:31.737Z,80.1
2018-02-11T06:37:34.158Z,80.1
2018-02-11T06:38:36.607Z,80.2
2018-02-11T06:39:39.025Z,80.3
2018-02-11T06:40:41.435Z,80.2
2018-02-11T06:41:44.166Z,80.2
2018-02-11T06:42:46.585Z,80
2018-02-11T06:43:48.997Z,80
2018-02-11T06:44:51.410Z,79.9
2018-02-11T06:45:54.133Z,79.9
2018-02-11T06:46:56.554Z,79.9
2018-02-11T06:47:58.965Z,79.9
2018-02-11T06:49:01.400Z,80
2018-02-11T06:50:04.111Z,80
2018-02-11T06:51:06.535Z,80
2018-02-11T06:52:08.960Z,80.1
2018-02-11T06:53:11.648Z,80.1
2018-02-11T06:54:14.074Z,80.1
2018-02-11T06:55:16.487Z,79.9
2018-02-11T06:56:18.906Z,80
2018-02-11T06:57:21.338Z,80
2018-02-11T06:58:23.751Z,80
2018-02-11T06:59:26.166Z,80.1
2018-02-11T07:00:28.587Z,80
2018-02-11T07:01:30.996Z,80
2018-02-11T07:02:33.416Z,80
2018-02-11T07:03:35.844Z,80
2018-02-11T07:04:38.547Z,80.1
2018-02-11T07:05:41.534Z,80.1
2018-02-11T07:06:43.962Z,80.1
2018-02-11T07:07:46.388Z,80.1
2018-02-11T07:08:48.808Z,80
2018-02-11T07:09:51.227Z,80.1
2018-02-11T07:10:53.651Z,80
2018-02-11T07:11:56.061Z,80.1
2018-02-11T07:12:58.767Z,80
2018-02-11T07:14:01.464Z,80
2018-02-11T07:15:03.890Z,80.2
2018-02-11T07:16:06.317Z,80.1
2018-02-11T07:17:08.750Z,80.1
2018-02-11T07:18:11.162Z,79.9
2018-02-11T07:19:13.881Z,79.9
2018-02-11T07:20:16.581Z,80.1
2018-02-11T07:21:19.002Z,80.2
2018-02-11T07:22:21.709Z,80.4
2018-02-11T07:23:24.123Z,80.4
2018-02-11T07:24:26.533Z,80.2
2018-02-11T07:25:28.954Z,80.1
2018-02-11T07:26:31.372Z,80.1
2018-02-11T07:27:33.791Z,80.2
2018-02-11T07:28:36.218Z,80.3
2018-02-11T07:29:38.640Z,80.3
2018-02-11T07:30:41.044Z,80.4
2018-02-11T07:31:43.467Z,80.6
2018-02-11T07:32:45.899Z,80.5
2018-02-11T07:33:48.318Z,80.5
2018-02-11T07:34:50.738Z,80.5
2018-02-11T07:35:53.150Z,80.5
2018-02-11T07:36:55.572Z,80.5
2018-02-11T07:37:58.281Z,80.5
2018-02-11T07:39:00.707Z,80.4
2018-02-11T07:40:03.429Z,80.5
2018-02-11T07:41:05.851Z,80.6
2018-02-11T07:42:08.267Z,80.6
2018-02-11T07:43:10.696Z,80.5
2018-02-11T07:44:13.122Z,80.3
2018-02-11T07:45:15.531Z,80.3
2018-02-11T07:46:18.269Z,80.5
2018-02-11T07:47:20.693Z,80.4
2018-02-11T07:48:23.106Z,80.2
2018-02-11T07:49:25.522Z,80.1
2018-02-11T07:50:28.225Z,80.1
2018-02-11T07:51:30.635Z,79.9
2018-02-11T07:52:33.074Z,79.9
2018-02-11T07:53:35.804Z,80.1
2018-02-11T07:54:38.503Z,80.3
2018-02-11T07:55:40.915Z,80.1
2018-02-11T07:56:43.339Z,79.8
2018-02-11T07:57:45.762Z,79.6
2018-02-11T07:58:48.180Z,79.9
2018-02-11T07:59:50.593Z,80
2018-02-11T08:00:53.012Z,79.9
2018-02-11T08:01:55.449Z,80
2018-02-11T08:02:57.863Z,80
2018-02-11T08:04:00.575Z,79.9
2018-02-11T08:05:02.987Z,79.8
2018-02-11T08:06:05.680Z,79.9
2018-02-11T08:07:08.108Z,79.9
2018-02-11T08:08:10.817Z,79.8
2018-02-11T08:09:13.225Z,79.7
2018-02-11T08:10:15.934Z,79.9
2018-02-11T08:11:18.347Z,80
2018-02-11T08:12:20.775Z,80
2018-02-11T08:13:23.193Z,80
2018-02-11T08:14:25.904Z,79.8
2018-02-11T08:15:28.332Z,79.7
2018-02-11T08:16:30.745Z,79.6
2018-02-11T08:17:33.179Z,79.7
2018-02-11T08:18:35.593Z,79.7
2018-02-11T08:19:38.011Z,79.4
2018-02-11T08:20:40.426Z,79.4
2018-02-11T08:21:42.846Z,79.6
2018-02-11T08:22:45.262Z,79.8
2018-02-11T08:23:47.982Z,79.8
2018-02-11T08:24:50.400Z,79.8
2018-02-11T08:25:53.108Z,79.7
2018-02-11T08:26:55.529Z,79.6
2018-02-11T08:27:57.948Z,79.7
2018-02-11T08:29:00.364Z,79.5
2018-02-11T08:30:02.792Z,79.6
2018-02-11T08:31:05.211Z,79.6
2018-02-11T08:32:07.632Z,79.4
2018-02-11T08:33:10.057Z,79.5
2018-02-11T08:34:12.477Z,79.6
2018-02-11T08:35:14.899Z,79.4
2018-02-11T08:36:17.637Z,79.4
2018-02-11T08:37:20.047Z,79.4
2018-02-11T08:38:22.471Z,79.4
2018-02-11T08:39:24.899Z,79.5
2018-02-11T08:40:27.600Z,79.4
2018-02-11T08:41:30.026Z,79.4
2018-02-11T08:42:32.456Z,79.4
2018-02-11T08:43:35.431Z,79.4
2018-02-11T08:44:37.854Z,79.4
2018-02-11T08:45:40.269Z,79.3
2018-02-11T08:46:42.691Z,79.4
2018-02-11T08:47:45.407Z,79.2
2018-02-11T08:48:48.109Z,79.2
2018-02-11T08:49:50.518Z,79.1
2018-02-11T08:50:52.954Z,79.2
2018-02-11T08:51:55.377Z,79.2
2018-02-11T08:52:57.797Z,79.3
2018-02-11T08:54:00.516Z,79.3
2018-02-11T08:55:02.936Z,79.2
2018-02-11T08:56:05.642Z,79.4
2018-02-11T08:57:08.352Z,79.2
2018-02-11T08:58:10.771Z,79.3
2018-02-11T08:59:13.193Z,79.3
2018-02-11T09:00:15.884Z,79.1
2018-02-11T09:01:18.314Z,79.4
2018-02-11T09:02:20.731Z,79.3
2018-02-11T09:03:23.153Z,79.1
2018-02-11T09:04:25.855Z,79.2
2018-02-11T09:05:28.283Z,79.3
2018-02-11T09:06:30.703Z,79.4
2018-02-11T09:07:33.139Z,79.5
2018-02-11T09:08:35.550Z,79.5
2018-02-11T09:09:37.976Z,79.4
2018-02-11T09:10:40.396Z,79.3
2018-02-11T09:11:42.809Z,79.3
2018-02-11T09:12:45.244Z,79.2
2018-02-11T09:13:47.952Z,79.1
2018-02-11T09:14:50.365Z,79.3
2018-02-11T09:15:52.785Z,79.4
2018-02-11T09:16:55.214Z,79.4
2018-02-11T09:17:57.914Z,79.4
2018-02-11T09:19:00.341Z,79.4
2018-02-11T09:20:02.758Z,79.5
2018-02-11T09:21:05.180Z,79.5
2018-02-11T09:22:07.603Z,79.5
2018-02-11T09:23:10.028Z,79.4
2018-02-11T09:24:12.443Z,79.6
2018-02-11T09:25:14.878Z,79.6
2018-02-11T09:26:17.297Z,79.6
2018-02-11T09:27:19.720Z,79.7
2018-02-11T09:28:22.128Z,79.5
2018-02-11T09:29:24.545Z,79.6
2018-02-11T09:30:26.970Z,79.6
2018-02-11T09:31:29.391Z,79.7
2018-02-11T09:32:31.804Z,79.7
2018-02-11T09:33:34.229Z,79.7
2018-02-11T09:34:36.658Z,79.7
2018-02-11T09:35:39.077Z,79.6
2018-02-11T09:36:41.499Z,79.6
2018-02-11T09:37:43.918Z,79.7
2018-02-11T09:38:46.338Z,79.8
2018-02-11T09:39:48.763Z,79.8
2018-02-11T09:40:51.182Z,79.7
2018-02-11T09:41:53.870Z,79.7
2018-02-11T09:42:56.290Z,79.7
2018-02-11T09:43:58.725Z,80
2018-02-11T09:45:01.148Z,79.7
2018-02-11T09:46:03.573Z,79.8
2018-02-11T09:47:05.990Z,79.9
2018-02-11T09:48:08.414Z,80.1
2018-02-11T09:49:10.845Z,80.2
2018-02-11T09:50:13.262Z,80.4
2018-02-11T09:51:15.671Z,80.3
2018-02-11T09:52:18.091Z,80.2
2018-02-11T09:53:20.797Z,80.1
2018-02-11T09:54:23.217Z,80.2
2018-02-11T09:55:25.637Z,80.4
2018-02-11T09:56:28.046Z,80.5
2018-02-11T09:57:30.457Z,80.8
2018-02-11T09:58:32.888Z,80.7
2018-02-11T09:59:35.304Z,80.7
2018-02-11T10:00:37.719Z,80.6
2018-02-11T10:01:40.144Z,80.8
2018-02-11T10:02:42.869Z,81
2018-02-11T10:03:45.301Z,81.2
2018-02-11T10:04:47.777Z,81.1
2018-02-11T10:05:50.134Z,81.1
2018-02-11T10:06:52.552Z,81.3
2018-02-11T10:07:55.269Z,81.7
2018-02-11T10:08:57.689Z,81.8
2018-02-11T10:10:00.108Z,81.7
2018-02-11T10:11:02.532Z,81.8
2018-02-11T10:12:04.956Z,81.9
2018-02-11T10:13:07.370Z,81.9
2018-02-11T10:14:09.788Z,82
2018-02-11T10:15:12.509Z,82.3
2018-02-11T10:16:15.213Z,82.2
2018-02-11T10:17:17.640Z,82
2018-02-11T10:18:20.076Z,82.2
2018-02-11T10:19:22.464Z,82.3
2018-02-11T10:20:24.891Z,82.1
2018-02-11T10:21:27.311Z,82.2
2018-02-11T10:22:29.718Z,82.3
2018-02-11T10:23:32.434Z,82.5
2018-02-11T10:24:34.858Z,82.3
2018-02-11T10:25:37.556Z,82.3
2018-02-11T10:26:39.985Z,82.6
2018-02-11T10:27:42.683Z,82.7
2018-02-11T10:28:45.102Z,82.5
2018-02-11T10:29:47.530Z,82.6
2018-02-11T10:30:49.934Z,82.7
2018-02-11T10:31:52.368Z,82.7
2018-02-11T10:32:54.786Z,82.8
2018-02-11T10:33:57.229Z,82.9
2018-02-11T10:34:59.625Z,82.7
2018-02-11T10:36:02.354Z,82.6
2018-02-11T10:37:05.041Z,82.6
2018-02-11T10:38:07.461Z,82.4
2018-02-11T10:39:09.888Z,82.6
2018-02-11T10:40:12.316Z,82.9
2018-02-11T10:41:14.719Z,83.2
2018-02-11T10:42:17.148Z,83.2
2018-02-11T10:43:19.572Z,82.9
2018-02-11T10:44:21.988Z,83
2018-02-11T10:45:24.408Z,83.2
2018-02-11T10:46:26.823Z,83.3
2018-02-11T10:47:29.239Z,83.4
2018-02-11T10:48:31.664Z,83.3
2018-02-11T10:49:34.080Z,83.4
2018-02-11T10:50:36.495Z,83.3
2018-02-11T10:51:38.923Z,83.3
2018-02-11T10:52:41.343Z,83.4
2018-02-11T10:53:43.770Z,83.6
2018-02-11T10:54:46.189Z,83.8
2018-02-11T10:55:48.599Z,83.6
2018-02-11T10:56:51.025Z,83.8
2018-02-11T10:57:53.440Z,83.6
2018-02-11T10:58:55.861Z,83.5
2018-02-11T10:59:58.280Z,83.5
2018-02-11T11:01:00.695Z,83.7
2018-02-11T11:02:03.401Z,83.9
2018-02-11T11:03:06.123Z,83.9
2018-02-11T11:04:08.527Z,84.1
2018-02-11T11:05:10.943Z,83.9
2018-02-11T11:06:13.647Z,84
2018-02-11T11:07:16.063Z,84
2018-02-11T11:08:18.489Z,84
2018-02-11T11:09:20.921Z,84.1
2018-02-11T11:10:23.337Z,84.1
2018-02-11T11:11:25.759Z,84.1
2018-02-11T11:12:28.179Z,83.9
2018-02-11T11:13:30.602Z,83.9
2018-02-11T11:14:33.026Z,84.1
2018-02-11T11:15:35.441Z,84.2
2018-02-11T11:16:37.861Z,84.1
2018-02-11T11:17:40.571Z,84
2018-02-11T11:18:42.994Z,84.1
2018-02-11T11:19:45.415Z,84.3
2018-02-11T11:20:48.120Z,84.7
2018-02-11T11:21:50.545Z,84.7
2018-02-11T11:22:52.957Z,84.7
2018-02-11T11:23:55.370Z,84.8
2018-02-11T11:24:57.797Z,84.9
2018-02-11T11:26:00.217Z,84.8
2018-02-11T11:27:02.633Z,84.9
2018-02-11T11:28:05.064Z,85.1
2018-02-11T11:29:07.482Z,84.8
2018-02-11T11:30:09.894Z,84.7
2018-02-11T11:31:12.323Z,84.6
2018-02-11T11:32:14.737Z,84.7
2018-02-11T11:33:17.163Z,85
2018-02-11T11:34:19.589Z,85.2
2018-02-11T11:35:22.007Z,85.4
2018-02-11T11:36:24.427Z,85.4
2018-02-11T11:37:27.146Z,85.4
2018-02-11T11:38:29.559Z,85.4
2018-02-11T11:39:31.984Z,85.5
2018-02-11T11:40:34.411Z,85.3
2018-02-11T11:41:36.826Z,85.3
2018-02-11T11:42:39.241Z,85.4
2018-02-11T11:43:41.667Z,85.3
2018-02-11T11:44:44.082Z,85.2
2018-02-11T11:45:46.507Z,85.2
2018-02-11T11:46:49.235Z,85.2
2018-02-11T11:47:51.649Z,85.3
2018-02-11T11:48:54.068Z,85.3
2018-02-11T11:49:56.493Z,85.5
2018-02-11T11:50:58.950Z,85.5
2018-02-11T11:52:01.340Z,85.7
2018-02-11T11:53:03.758Z,85.9
2018-02-11T11:54:06.189Z,85.8
2018-02-11T11:55:08.613Z,85.7
2018-02-11T11:56:11.321Z,85.8
2018-02-11T11:57:13.749Z,85.8
2018-02-11T11:58:16.186Z,85.8
2018-02-11T11:59:18.588Z,85.8
2018-02-11T12:00:21.006Z,85.9
2018-02-11T12:01:23.416Z,86.2
2018-02-11T12:02:25.839Z,86.2
2018-02-11T12:03:28.303Z,86.2
2018-02-11T12:04:30.680Z,86.4
2018-02-11T12:05:33.107Z,86.6
2018-02-11T12:06:35.817Z,86.5
2018-02-11T12:07:38.530Z,86.5
2018-02-11T12:08:40.954Z,86.4
2018-02-11T12:09:43.370Z,86.4
2018-02-11T12:10:45.785Z,86.4
2018-02-11T12:11:48.214Z,86.6
2018-02-11T12:12:50.643Z,86.7
2018-02-11T12:13:53.053Z,86.4
2018-02-11T12:14:55.484Z,86.5
2018-02-11T12:15:57.909Z,86.5
2018-02-11T12:17:00.334Z,86.9
2018-02-11T12:18:02.756Z,87.1
2018-02-11T12:19:05.168Z,87.4
2018-02-11T12:20:07.583Z,87.4
2018-02-11T12:21:10.021Z,87
2018-02-11T12:22:12.438Z,86.8
2018-02-11T12:23:14.863Z,86.8
2018-02-11T12:24:17.275Z,86.9
2018-02-11T12:25:19.698Z,87
2018-02-11T12:26:22.133Z,87.3
2018-02-11T12:27:24.551Z,87.3
2018-02-11T12:28:26.960Z,87.3
2018-02-11T12:29:29.376Z,87.4
2018-02-11T12:30:31.791Z,87.5
2018-02-11T12:31:34.224Z,87.6
2018-02-11T12:32:36.647Z,87.6
2018-02-11T12:33:39.065Z,87.5
2018-02-11T12:34:41.492Z,87.5
2018-02-11T12:35:43.925Z,87.6
2018-02-11T12:36:46.343Z,87.6
2018-02-11T12:37:48.753Z,87.5
2018-02-11T12:38:51.170Z,87.5
2018-02-11T12:39:53.592Z,87.6
2018-02-11T12:40:56.294Z,87.6
2018-02-11T12:41:58.722Z,87.7
2018-02-11T12:43:01.142Z,87.9
2018-02-11T12:44:03.564Z,88
2018-02-11T12:45:06.004Z,87.7
2018-02-11T12:46:08.424Z,87.5
2018-02-11T12:47:10.834Z,87.6
2018-02-11T12:48:13.256Z,87.6
2018-02-11T12:49:15.673Z,87.6
2018-02-11T12:50:18.092Z,87.5
2018-02-11T12:51:20.513Z,87.6
2018-02-11T12:52:22.925Z,87.5
2018-02-11T12:53:25.347Z,87.6
2018-02-11T12:54:27.776Z,87.6
2018-02-11T12:55:30.476Z,87.8
2018-02-11T12:56:32.911Z,87.9
2018-02-11T12:57:35.334Z,87.8
2018-02-11T12:58:37.748Z,87.9
2018-02-11T12:59:40.183Z,88
2018-02-11T13:00:42.641Z,88.1
2018-02-11T13:01:45.017Z,88.2
2018-02-11T13:02:47.446Z,88.1
2018-02-11T13:03:49.870Z,88
2018-02-11T13:04:52.288Z,87.7
2018-02-11T13:05:54.707Z,87.5
2018-02-11T13:06:57.136Z,87.6
2018-02-11T13:07:59.572Z,87.7
2018-02-11T13:09:01.971Z,87.7
2018-02-11T13:10:04.405Z,87.9
2018-02-11T13:11:06.824Z,88
2018-02-11T13:12:09.251Z,87.9
2018-02-11T13:13:11.672Z,87.9
2018-02-11T13:14:14.094Z,87.8
2018-02-11T13:15:16.533Z,87.7
2018-02-11T13:16:18.943Z,87.8
2018-02-11T13:17:21.644Z,88
2018-02-11T13:18:24.350Z,88.2
2018-02-11T13:19:26.764Z,88
2018-02-11T13:20:29.200Z,87.9
2018-02-11T13:21:31.913Z,87.7
2018-02-11T13:22:34.335Z,87.8
2018-02-11T13:23:37.049Z,87.9
2018-02-11T13:24:39.470Z,87.9
2018-02-11T13:25:41.892Z,87.9
2018-02-11T13:26:44.319Z,87.8
2018-02-11T13:27:46.732Z,88
2018-02-11T13:28:49.164Z,88.1
2018-02-11T13:29:51.587Z,88.1
2018-02-11T13:30:54.299Z,88
2018-02-11T13:31:56.717Z,88.1
2018-02-11T13:32:59.140Z,88.2
2018-02-11T13:34:01.554Z,88.1
2018-02-11T13:35:03.987Z,87.9
2018-02-11T13:36:06.405Z,87.8
2018-02-11T13:37:08.821Z,87.9
2018-02-11T13:38:11.532Z,87.8
2018-02-11T13:39:13.966Z,87.8
2018-02-11T13:40:16.379Z,88
2018-02-11T13:41:18.815Z,88.2
2018-02-11T13:42:21.239Z,88.4
2018-02-11T13:43:23.653Z,88.6
2018-02-11T13:44:26.085Z,88.7
2018-02-11T13:45:28.797Z,88.8
2018-02-11T13:46:31.228Z,88.6
2018-02-11T13:47:33.941Z,88.6
2018-02-11T13:48:36.359Z,88.6
2018-02-11T13:49:38.778Z,88.7
2018-02-11T13:50:41.206Z,88.6
2018-02-11T13:51:43.614Z,88.6
2018-02-11T13:52:46.037Z,88.7
2018-02-11T13:53:48.467Z,88.7
2018-02-11T13:54:50.899Z,88.6
2018-02-11T13:55:53.609Z,88.4
2018-02-11T13:56:56.032Z,88.2